Terminal Aerodrome Forecast
Issued by NWS Sioux Falls, SD

Home | Current Version | Previous Version | Text Only | Print | Product List | Glossary Off
Versions: 1 2 3 4 5 6 7 8 9 10 11 12

000
FTUS43 KFSD 152331
TAFFSD
TAF
KFSD 152331Z 1600/1624 VRB03KT P6SM SKC
     FM161000 VRB03KT P6SM MIFG SKC
     FM161430 18009KT P6SM SCT030=

USA.gov is the U.S. government's official web portal to all federal, state and local government web resources and services.